sensor_id;sensor_type;location;lat;lon;timestamp;pressure;altitude;pressure_sealevel;temperature;humidity
19236;BME280;9752;54.270;12.470;2023-11-21T00:02:02;101532.53;;;5.45;100.00
19236;BME280;9752;54.270;12.470;2023-11-21T00:07:04;101540.03;;;5.34;100.00
19236;BME280;9752;54.270;12.470;2023-11-21T00:12:07;101550.28;;;5.15;100.00
19236;BME280;9752;54.270;12.470;2023-11-21T00:17:11;101558.50;;;5.02;100.00
19236;BME280;9752;54.270;12.470;2023-11-21T00:22:13;101564.50;;;5.11;100.00
19236;BME280;9752;54.270;12.470;2023-11-21T00:27:16;101571.50;;;5.31;100.00
19236;BME280;9752;54.270;12.470;2023-11-21T00:32:19;101571.91;;;5.44;100.00
19236;BME280;9752;54.270;12.470;2023-11-21T00:37:21;101569.28;;;5.53;100.00
19236;BME280;9752;54.270;12.470;2023-11-21T00:42:22;101565.16;;;5.55;100.00
19236;BME280;9752;54.270;12.470;2023-11-21T00:47:27;101572.53;;;5.61;100.00
19236;BME280;9752;54.270;12.470;2023-11-21T00:52:28;101569.47;;;5.65;100.00
19236;BME280;9752;54.270;12.470;2023-11-21T00:57:30;101573.41;;;5.70;100.00
19236;BME280;9752;54.270;12.470;2023-11-21T01:02:33;101576.47;;;5.66;100.00
19236;BME280;9752;54.270;12.470;2023-11-21T01:07:36;101572.50;;;5.70;100.00
19236;BME280;9752;54.270;12.470;2023-11-21T01:12:38;101576.47;;;5.66;100.00
19236;BME280;9752;54.270;12.470;2023-11-21T01:17:41;101588.69;;;5.68;100.00
19236;BME280;9752;54.270;12.470;2023-11-21T01:22:43;101586.78;;;5.57;100.00
19236;BME280;9752;54.270;12.470;2023-11-21T01:27:45;101598.69;;;5.46;100.00
19236;BME280;9752;54.270;12.470;2023-11-21T01:32:48;101594.38;;;5.56;100.00
19236;BME280;9752;54.270;12.470;2023-11-21T01:37:50;101591.13;;;5.67;100.00
19236;BME280;9752;54.270;12.470;2023-11-21T01:42:53;101594.00;;;5.70;100.00
19236;BME280;9752;54.270;12.470;2023-11-21T01:47:56;101594.28;;;5.73;100.00
19236;BME280;9752;54.270;12.470;2023-11-21T01:52:58;101599.69;;;5.76;100.00
19236;BME280;9752;54.270;12.470;2023-11-21T01:58:00;101579.09;;;5.76;100.00
19236;BME280;9752;54.270;12.470;2023-11-21T02:03:03;101584.53;;;5.79;100.00
19236;BME280;9752;54.270;12.470;2023-11-21T02:08:05;101587.28;;;5.81;100.00
19236;BME280;9752;54.270;12.470;2023-11-21T02:13:07;101581.34;;;5.82;100.00
19236;BME280;9752;54.270;12.470;2023-11-21T02:18:10;101586.22;;;5.79;100.00
19236;BME280;9752;54.270;12.470;2023-11-21T02:23:13;101595.53;;;5.68;100.00
19236;BME280;9752;54.270;12.470;2023-11-21T02:28:15;101594.84;;;5.52;100.00
19236;BME280;9752;54.270;12.470;2023-11-21T02:33:26;101600.00;;;5.24;100.00
19236;BME280;9752;54.270;12.470;2023-11-21T02:38:29;101606.44;;;5.01;100.00
19236;BME280;9752;54.270;12.470;2023-11-21T02:43:31;101618.09;;;4.89;100.00
19236;BME280;9752;54.270;12.470;2023-11-21T02:48:32;101628.22;;;5.05;100.00
19236;BME280;9752;54.270;12.470;2023-11-21T02:53:36;101630.00;;;5.15;100.00
19236;BME280;9752;54.270;12.470;2023-11-21T02:58:41;101636.81;;;5.05;100.00
19236;BME280;9752;54.270;12.470;2023-11-21T03:03:43;101639.31;;;4.78;100.00
19236;BME280;9752;54.270;12.470;2023-11-21T03:08:46;101642.38;;;4.65;100.00
19236;BME280;9752;54.270;12.470;2023-11-21T03:13:48;101647.63;;;4.75;100.00
19236;BME280;9752;54.270;12.470;2023-11-21T03:18:50;101650.94;;;4.92;100.00
19236;BME280;9752;54.270;12.470;2023-11-21T03:23:54;101660.16;;;4.89;100.00
19236;BME280;9752;54.270;12.470;2023-11-21T03:28:55;101663.97;;;4.67;100.00
19236;BME280;9752;54.270;12.470;2023-11-21T03:33:57;101672.00;;;4.61;100.00
19236;BME280;9752;54.270;12.470;2023-11-21T03:39:00;101688.13;;;4.78;100.00
19236;BME280;9752;54.270;12.470;2023-11-21T03:44:02;101701.56;;;5.01;100.00
19236;BME280;9752;54.270;12.470;2023-11-21T03:49:04;101710.44;;;5.14;100.00
19236;BME280;9752;54.270;12.470;2023-11-21T03:54:07;101711.50;;;5.24;100.00
19236;BME280;9752;54.270;12.470;2023-11-21T03:59:11;101699.84;;;5.28;100.00
19236;BME280;9752;54.270;12.470;2023-11-21T04:04:13;101713.91;;;5.23;100.00
19236;BME280;9752;54.270;12.470;2023-11-21T04:09:16;101713.03;;;5.14;100.00
19236;BME280;9752;54.270;12.470;2023-11-21T04:14:18;101726.19;;;5.08;100.00
19236;BME280;9752;54.270;12.470;2023-11-21T04:19:20;101727.88;;;5.16;100.00
19236;BME280;9752;54.270;12.470;2023-11-21T04:24:23;101737.84;;;5.22;100.00
19236;BME280;9752;54.270;12.470;2023-11-21T04:29:24;101741.94;;;5.20;100.00
19236;BME280;9752;54.270;12.470;2023-11-21T04:34:27;101753.72;;;5.18;100.00
19236;BME280;9752;54.270;12.470;2023-11-21T04:39:32;101748.13;;;5.22;100.00
19236;BME280;9752;54.270;12.470;2023-11-21T04:44:34;101746.16;;;5.19;100.00
19236;BME280;9752;54.270;12.470;2023-11-21T04:49:35;101754.03;;;5.21;100.00
19236;BME280;9752;54.270;12.470;2023-11-21T04:54:38;101760.53;;;5.26;100.00
19236;BME280;9752;54.270;12.470;2023-11-21T04:59:40;101762.19;;;5.25;100.00
19236;BME280;9752;54.270;12.470;2023-11-21T05:04:43;101758.22;;;5.29;100.00
19236;BME280;9752;54.270;12.470;2023-11-21T05:09:46;101766.72;;;5.28;100.00
19236;BME280;9752;54.270;12.470;2023-11-21T05:14:48;101777.31;;;5.22;100.00
19236;BME280;9752;54.270;12.470;2023-11-21T05:19:50;101787.31;;;5.11;100.00
19236;BME280;9752;54.270;12.470;2023-11-21T05:24:52;101796.69;;;5.01;100.00
19236;BME280;9752;54.270;12.470;2023-11-21T05:29:54;101801.69;;;4.91;100.00
19236;BME280;9752;54.270;12.470;2023-11-21T05:34:56;101807.59;;;4.73;100.00
19236;BME280;9752;54.270;12.470;2023-11-21T05:39:59;101814.19;;;4.53;100.00
19236;BME280;9752;54.270;12.470;2023-11-21T05:45:06;101821.72;;;4.43;100.00
19236;BME280;9752;54.270;12.470;2023-11-21T05:50:11;101838.50;;;4.39;100.00
19236;BME280;9752;54.270;12.470;2023-11-21T05:55:16;101843.78;;;4.41;100.00
19236;BME280;9752;54.270;12.470;2023-11-21T06:00:18;101856.81;;;4.51;100.00
19236;BME280;9752;54.270;12.470;2023-11-21T06:05:23;101869.41;;;4.65;100.00
19236;BME280;9752;54.270;12.470;2023-11-21T06:10:26;101875.00;;;4.79;100.00
19236;BME280;9752;54.270;12.470;2023-11-21T06:15:28;101874.13;;;4.87;100.00
19236;BME280;9752;54.270;12.470;2023-11-21T06:20:30;101881.38;;;4.82;100.00
19236;BME280;9752;54.270;12.470;2023-11-21T06:25:33;101890.59;;;4.80;100.00
19236;BME280;9752;54.270;12.470;2023-11-21T06:30:36;101897.22;;;4.69;100.00
19236;BME280;9752;54.270;12.470;2023-11-21T06:35:38;101897.28;;;4.45;100.00
19236;BME280;9752;54.270;12.470;2023-11-21T06:40:41;101906.28;;;4.24;100.00
19236;BME280;9752;54.270;12.470;2023-11-21T06:45:43;101923.22;;;4.06;100.00
19236;BME280;9752;54.270;12.470;2023-11-21T06:50:45;101931.34;;;3.93;100.00
19236;BME280;9752;54.270;12.470;2023-11-21T06:55:48;101945.22;;;3.95;100.00
19236;BME280;9752;54.270;12.470;2023-11-21T07:00:49;101949.72;;;4.14;100.00
19236;BME280;9752;54.270;12.470;2023-11-21T07:05:52;101961.91;;;4.32;100.00
19236;BME280;9752;54.270;12.470;2023-11-21T07:10:55;101985.59;;;4.54;100.00
19236;BME280;9752;54.270;12.470;2023-11-21T07:15:57;101994.41;;;4.65;100.00
19236;BME280;9752;54.270;12.470;2023-11-21T07:20:59;102008.84;;;4.89;100.00
19236;BME280;9752;54.270;12.470;2023-11-21T07:26:02;102000.00;;;5.12;100.00
19236;BME280;9752;54.270;12.470;2023-11-21T07:31:09;101997.31;;;5.19;100.00
19236;BME280;9752;54.270;12.470;2023-11-21T07:36:10;101996.13;;;5.24;100.00
19236;BME280;9752;54.270;12.470;2023-11-21T07:41:13;101993.38;;;5.31;100.00
19236;BME280;9752;54.270;12.470;2023-11-21T07:46:16;101999.72;;;5.17;100.00
19236;BME280;9752;54.270;12.470;2023-11-21T07:51:18;101991.09;;;5.17;100.00
19236;BME280;9752;54.270;12.470;2023-11-21T07:56:21;101985.81;;;5.24;100.00
19236;BME280;9752;54.270;12.470;2023-11-21T08:01:22;101982.34;;;5.50;100.00
19236;BME280;9752;54.270;12.470;2023-11-21T08:06:24;101984.16;;;5.59;100.00
19236;BME280;9752;54.270;12.470;2023-11-21T08:11:28;101982.81;;;5.63;100.00
19236;BME280;9752;54.270;12.470;2023-11-21T08:16:32;101980.69;;;5.59;100.00
19236;BME280;9752;54.270;12.470;2023-11-21T08:21:33;101993.72;;;5.69;100.00
19236;BME280;9752;54.270;12.470;2023-11-21T08:26:38;101992.34;;;5.81;100.00
19236;BME280;9752;54.270;12.470;2023-11-21T08:31:40;101987.81;;;5.87;100.00
19236;BME280;9752;54.270;12.470;2023-11-21T08:36:42;102003.56;;;5.91;100.00
19236;BME280;9752;54.270;12.470;2023-11-21T08:41:45;101985.69;;;5.83;100.00
19236;BME280;9752;54.270;12.470;2023-11-21T08:46:47;101986.47;;;6.00;100.00
19236;BME280;9752;54.270;12.470;2023-11-21T08:51:49;101995.09;;;6.09;100.00
19236;BME280;9752;54.270;12.470;2023-11-21T08:56:52;101995.84;;;5.99;100.00
19236;BME280;9752;54.270;12.470;2023-11-21T09:01:55;101990.38;;;6.05;100.00
19236;BME280;9752;54.270;12.470;2023-11-21T09:06:56;102001.44;;;6.21;100.00
19236;BME280;9752;54.270;12.470;2023-11-21T09:12:01;102000.53;;;6.21;100.00
19236;BME280;9752;54.270;12.470;2023-11-21T09:17:03;102010.16;;;6.41;100.00
19236;BME280;9752;54.270;12.470;2023-11-21T09:22:11;102014.66;;;6.07;100.00
19236;BME280;9752;54.270;12.470;2023-11-21T09:27:14;102021.25;;;6.31;100.00
19236;BME280;9752;54.270;12.470;2023-11-21T09:32:15;102040.03;;;6.39;100.00
19236;BME280;9752;54.270;12.470;2023-11-21T09:37:19;102036.25;;;6.35;100.00
19236;BME280;9752;54.270;12.470;2023-11-21T09:42:25;102045.13;;;6.65;100.00
19236;BME280;9752;54.270;12.470;2023-11-21T09:47:28;102051.88;;;6.37;100.00
19236;BME280;9752;54.270;12.470;2023-11-21T09:52:31;102056.34;;;6.65;100.00
19236;BME280;9752;54.270;12.470;2023-11-21T09:57:35;102069.50;;;6.86;100.00
19236;BME280;9752;54.270;12.470;2023-11-21T10:02:36;102069.53;;;6.77;100.00
19236;BME280;9752;54.270;12.470;2023-11-21T10:07:39;102075.53;;;6.95;100.00
19236;BME280;9752;54.270;12.470;2023-11-21T10:12:43;102076.50;;;7.15;100.00
19236;BME280;9752;54.270;12.470;2023-11-21T10:17:49;102076.72;;;7.08;100.00
19236;BME280;9752;54.270;12.470;2023-11-21T10:22:53;102078.91;;;6.86;100.00
19236;BME280;9752;54.270;12.470;2023-11-21T10:28:01;102076.81;;;6.81;100.00
19236;BME280;9752;54.270;12.470;2023-11-21T10:33:05;102080.44;;;6.83;100.00
19236;BME280;9752;54.270;12.470;2023-11-21T10:38:08;102086.22;;;6.63;100.00
19236;BME280;9752;54.270;12.470;2023-11-21T10:43:12;102093.38;;;6.66;100.00
19236;BME280;9752;54.270;12.470;2023-11-21T10:48:15;102100.97;;;6.56;100.00
19236;BME280;9752;54.270;12.470;2023-11-21T10:53:17;102109.03;;;6.41;100.00
19236;BME280;9752;54.270;12.470;2023-11-21T10:58:20;102105.56;;;6.15;100.00
19236;BME280;9752;54.270;12.470;2023-11-21T11:03:22;102108.13;;;6.06;100.00
19236;BME280;9752;54.270;12.470;2023-11-21T11:08:24;102122.97;;;6.00;100.00
19236;BME280;9752;54.270;12.470;2023-11-21T11:13:29;102125.22;;;5.97;100.00
19236;BME280;9752;54.270;12.470;2023-11-21T11:18:33;102119.50;;;6.17;100.00
19236;BME280;9752;54.270;12.470;2023-11-21T11:23:46;102122.84;;;6.24;100.00
19236;BME280;9752;54.270;12.470;2023-11-21T11:28:59;102121.00;;;6.06;100.00
19236;BME280;9752;54.270;12.470;2023-11-21T11:34:10;102132.78;;;5.86;100.00
19236;BME280;9752;54.270;12.470;2023-11-21T11:39:26;102136.84;;;5.76;100.00
19236;BME280;9752;54.270;12.470;2023-11-21T11:44:50;102148.97;;;5.85;100.00
19236;BME280;9752;54.270;12.470;2023-11-21T11:50:02;102156.25;;;5.81;100.00
19236;BME280;9752;54.270;12.470;2023-11-21T11:55:08;102156.13;;;5.88;100.00
19236;BME280;9752;54.270;12.470;2023-11-21T12:00:16;102157.91;;;5.89;100.00
19236;BME280;9752;54.270;12.470;2023-11-21T12:05:21;102167.22;;;5.96;100.00
19236;BME280;9752;54.270;12.470;2023-11-21T12:10:24;102177.16;;;5.93;100.00
19236;BME280;9752;54.270;12.470;2023-11-21T12:15:28;102181.16;;;6.06;100.00
19236;BME280;9752;54.270;12.470;2023-11-21T12:20:32;102185.25;;;5.96;100.00
19236;BME280;9752;54.270;12.470;2023-11-21T12:25:38;102196.22;;;5.77;100.00
19236;BME280;9752;54.270;12.470;2023-11-21T12:30:43;102201.38;;;5.77;100.00
19236;BME280;9752;54.270;12.470;2023-11-21T12:35:45;102207.56;;;5.79;100.00
19236;BME280;9752;54.270;12.470;2023-11-21T12:40:47;102220.84;;;5.58;100.00
19236;BME280;9752;54.270;12.470;2023-11-21T12:45:50;102217.19;;;5.31;100.00
19236;BME280;9752;54.270;12.470;2023-11-21T12:50:53;102236.56;;;5.27;100.00
19236;BME280;9752;54.270;12.470;2023-11-21T12:55:56;102240.03;;;5.28;100.00
19236;BME280;9752;54.270;12.470;2023-11-21T13:01:00;102241.81;;;5.20;100.00
19236;BME280;9752;54.270;12.470;2023-11-21T13:06:04;102254.78;;;5.13;100.00
19236;BME280;9752;54.270;12.470;2023-11-21T13:11:07;102260.19;;;5.07;100.00
19236;BME280;9752;54.270;12.470;2023-11-21T13:16:11;102271.63;;;5.02;100.00
19236;BME280;9752;54.270;12.470;2023-11-21T13:21:13;102291.72;;;4.98;100.00
19236;BME280;9752;54.270;12.470;2023-11-21T13:26:15;102300.47;;;4.75;100.00
19236;BME280;9752;54.270;12.470;2023-11-21T13:31:22;102311.84;;;4.61;100.00
19236;BME280;9752;54.270;12.470;2023-11-21T13:36:27;102330.72;;;4.46;100.00
19236;BME280;9752;54.270;12.470;2023-11-21T13:41:32;102338.56;;;4.32;100.00
19236;BME280;9752;54.270;12.470;2023-11-21T13:46:35;102348.59;;;4.21;100.00
19236;BME280;9752;54.270;12.470;2023-11-21T13:51:37;102346.41;;;4.17;100.00
19236;BME280;9752;54.270;12.470;2023-11-21T13:56:42;102349.50;;;4.22;100.00
19236;BME280;9752;54.270;12.470;2023-11-21T14:01:46;102352.28;;;4.16;100.00
19236;BME280;9752;54.270;12.470;2023-11-21T14:06:55;102369.59;;;4.10;100.00
19236;BME280;9752;54.270;12.470;2023-11-21T14:11:57;102367.16;;;4.11;100.00
19236;BME280;9752;54.270;12.470;2023-11-21T14:17:01;102370.31;;;4.09;100.00
19236;BME280;9752;54.270;12.470;2023-11-21T14:22:07;102370.06;;;3.99;100.00
19236;BME280;9752;54.270;12.470;2023-11-21T14:27:10;102379.56;;;4.00;100.00
19236;BME280;9752;54.270;12.470;2023-11-21T14:32:13;102383.84;;;3.92;100.00
19236;BME280;9752;54.270;12.470;2023-11-21T14:37:16;102395.59;;;3.90;100.00
19236;BME280;9752;54.270;12.470;2023-11-21T14:42:17;102402.06;;;3.79;100.00
19236;BME280;9752;54.270;12.470;2023-11-21T14:47:26;102408.38;;;3.74;100.00
19236;BME280;9752;54.270;12.470;2023-11-21T14:52:27;102414.56;;;3.76;100.00
19236;BME280;9752;54.270;12.470;2023-11-21T14:57:35;102425.78;;;3.69;100.00
19236;BME280;9752;54.270;12.470;2023-11-21T15:02:38;102425.28;;;3.65;100.00
19236;BME280;9752;54.270;12.470;2023-11-21T15:07:50;102439.59;;;3.63;100.00
19236;BME280;9752;54.270;12.470;2023-11-21T15:12:56;102441.41;;;3.64;100.00
19236;BME280;9752;54.270;12.470;2023-11-21T15:17:59;102454.59;;;3.67;100.00
19236;BME280;9752;54.270;12.470;2023-11-21T15:23:01;102465.44;;;3.64;100.00
19236;BME280;9752;54.270;12.470;2023-11-21T15:28:05;102465.78;;;3.60;100.00
19236;BME280;9752;54.270;12.470;2023-11-21T15:33:08;102471.47;;;3.65;100.00
19236;BME280;9752;54.270;12.470;2023-11-21T15:38:10;102471.50;;;3.58;100.00
19236;BME280;9752;54.270;12.470;2023-11-21T15:43:12;102487.09;;;3.52;100.00
19236;BME280;9752;54.270;12.470;2023-11-21T15:48:15;102491.13;;;3.57;100.00
19236;BME280;9752;54.270;12.470;2023-11-21T15:53:17;102499.00;;;3.51;100.00
19236;BME280;9752;54.270;12.470;2023-11-21T15:58:18;102517.50;;;3.56;100.00
19236;BME280;9752;54.270;12.470;2023-11-21T16:03:21;102524.66;;;3.51;100.00
19236;BME280;9752;54.270;12.470;2023-11-21T16:08:23;102523.56;;;3.49;100.00
19236;BME280;9752;54.270;12.470;2023-11-21T16:13:26;102533.84;;;3.49;100.00
19236;BME280;9752;54.270;12.470;2023-11-21T16:18:29;102541.94;;;3.38;100.00
19236;BME280;9752;54.270;12.470;2023-11-21T16:23:31;102545.03;;;3.36;100.00
19236;BME280;9752;54.270;12.470;2023-11-21T16:28:33;102557.16;;;3.22;100.00
19236;BME280;9752;54.270;12.470;2023-11-21T16:33:36;102575.66;;;3.20;100.00
19236;BME280;9752;54.270;12.470;2023-11-21T16:38:37;102593.25;;;3.02;100.00
19236;BME280;9752;54.270;12.470;2023-11-21T16:43:40;102593.06;;;2.86;100.00
19236;BME280;9752;54.270;12.470;2023-11-21T16:48:43;102605.13;;;2.73;100.00
19236;BME280;9752;54.270;12.470;2023-11-21T16:53:44;102611.34;;;2.53;100.00
19236;BME280;9752;54.270;12.470;2023-11-21T16:58:46;102624.28;;;2.33;100.00
19236;BME280;9752;54.270;12.470;2023-11-21T17:03:49;102635.25;;;2.32;100.00
19236;BME280;9752;54.270;12.470;2023-11-21T17:08:52;102633.97;;;2.36;100.00
19236;BME280;9752;54.270;12.470;2023-11-21T17:13:53;102644.06;;;2.42;100.00
19236;BME280;9752;54.270;12.470;2023-11-21T17:18:56;102657.81;;;2.49;100.00
19236;BME280;9752;54.270;12.470;2023-11-21T17:23:58;102667.09;;;2.42;100.00
19236;BME280;9752;54.270;12.470;2023-11-21T17:29:01;102664.56;;;2.42;100.00
19236;BME280;9752;54.270;12.470;2023-11-21T17:34:04;102675.06;;;2.23;100.00
19236;BME280;9752;54.270;12.470;2023-11-21T17:39:06;102688.44;;;2.21;100.00
19236;BME280;9752;54.270;12.470;2023-11-21T17:44:10;102707.34;;;2.01;100.00
19236;BME280;9752;54.270;12.470;2023-11-21T17:49:14;102694.56;;;2.01;100.00
19236;BME280;9752;54.270;12.470;2023-11-21T17:54:15;102710.06;;;1.95;100.00
19236;BME280;9752;54.270;12.470;2023-11-21T17:59:18;102715.34;;;2.24;100.00
19236;BME280;9752;54.270;12.470;2023-11-21T18:04:21;102740.34;;;2.61;100.00
19236;BME280;9752;54.270;12.470;2023-11-21T18:09:23;102745.03;;;2.85;100.00
19236;BME280;9752;54.270;12.470;2023-11-21T18:14:25;102765.41;;;3.20;100.00
19236;BME280;9752;54.270;12.470;2023-11-21T18:19:28;102763.97;;;3.29;100.00
19236;BME280;9752;54.270;12.470;2023-11-21T18:24:29;102769.81;;;3.13;100.00
19236;BME280;9752;54.270;12.470;2023-11-21T18:29:31;102778.88;;;2.90;100.00
19236;BME280;9752;54.270;12.470;2023-11-21T18:34:34;102776.41;;;2.63;100.00
19236;BME280;9752;54.270;12.470;2023-11-21T18:39:36;102777.78;;;2.39;100.00
19236;BME280;9752;54.270;12.470;2023-11-21T18:44:41;102787.38;;;2.20;100.00
19236;BME280;9752;54.270;12.470;2023-11-21T18:49:44;102779.69;;;2.20;100.00
19236;BME280;9752;54.270;12.470;2023-11-21T18:54:45;102800.31;;;2.14;100.00
19236;BME280;9752;54.270;12.470;2023-11-21T18:59:48;102816.94;;;2.18;100.00
19236;BME280;9752;54.270;12.470;2023-11-21T19:04:52;102818.66;;;2.25;100.00
19236;BME280;9752;54.270;12.470;2023-11-21T19:09:53;102830.19;;;2.28;100.00
19236;BME280;9752;54.270;12.470;2023-11-21T19:14:55;102836.09;;;2.34;100.00
19236;BME280;9752;54.270;12.470;2023-11-21T19:19:58;102836.22;;;2.29;100.00
19236;BME280;9752;54.270;12.470;2023-11-21T19:25:00;102830.78;;;2.06;100.00
19236;BME280;9752;54.270;12.470;2023-11-21T19:30:02;102842.75;;;1.92;100.00
19236;BME280;9752;54.270;12.470;2023-11-21T19:35:06;102844.84;;;1.82;100.00
19236;BME280;9752;54.270;12.470;2023-11-21T19:40:10;102871.59;;;1.71;100.00
19236;BME280;9752;54.270;12.470;2023-11-21T19:45:12;102883.16;;;1.42;100.00
19236;BME280;9752;54.270;12.470;2023-11-21T19:50:16;102889.72;;;1.40;100.00
19236;BME280;9752;54.270;12.470;2023-11-21T19:55:17;102899.06;;;1.27;100.00
19236;BME280;9752;54.270;12.470;2023-11-21T20:00:19;102912.50;;;1.19;100.00
19236;BME280;9752;54.270;12.470;2023-11-21T20:05:22;102906.03;;;1.28;100.00
19236;BME280;9752;54.270;12.470;2023-11-21T20:10:24;102909.06;;;1.38;100.00
19236;BME280;9752;54.270;12.470;2023-11-21T20:15:25;102904.63;;;1.50;100.00
19236;BME280;9752;54.270;12.470;2023-11-21T20:20:28;102917.13;;;1.54;100.00
19236;BME280;9752;54.270;12.470;2023-11-21T20:25:30;102921.56;;;1.62;100.00
19236;BME280;9752;54.270;12.470;2023-11-21T20:30:31;102923.94;;;1.61;100.00
19236;BME280;9752;54.270;12.470;2023-11-21T20:35:35;102946.50;;;1.38;100.00
19236;BME280;9752;54.270;12.470;2023-11-21T20:40:37;102948.16;;;1.24;100.00
19236;BME280;9752;54.270;12.470;2023-11-21T20:45:40;102951.16;;;1.14;100.00
19236;BME280;9752;54.270;12.470;2023-11-21T20:50:44;102966.59;;;0.96;100.00
19236;BME280;9752;54.270;12.470;2023-11-21T20:55:45;102972.41;;;0.82;100.00
19236;BME280;9752;54.270;12.470;2023-11-21T21:00:49;102987.03;;;0.70;100.00
19236;BME280;9752;54.270;12.470;2023-11-21T21:05:52;102999.34;;;0.54;100.00
19236;BME280;9752;54.270;12.470;2023-11-21T21:10:54;103001.16;;;0.43;100.00
19236;BME280;9752;54.270;12.470;2023-11-21T21:15:55;103010.38;;;0.61;100.00
19236;BME280;9752;54.270;12.470;2023-11-21T21:20:58;103014.19;;;0.83;100.00
19236;BME280;9752;54.270;12.470;2023-11-21T21:26:03;103015.13;;;1.34;100.00
19236;BME280;9752;54.270;12.470;2023-11-21T21:31:08;103029.22;;;1.38;100.00
19236;BME280;9752;54.270;12.470;2023-11-21T21:36:11;103030.47;;;1.47;100.00
19236;BME280;9752;54.270;12.470;2023-11-21T21:41:13;103033.53;;;1.45;100.00
19236;BME280;9752;54.270;12.470;2023-11-21T21:46:18;103025.44;;;1.54;100.00
19236;BME280;9752;54.270;12.470;2023-11-21T21:51:22;103039.66;;;1.52;100.00
19236;BME280;9752;54.270;12.470;2023-11-21T21:56:25;103053.34;;;1.66;100.00
19236;BME280;9752;54.270;12.470;2023-11-21T22:01:27;103074.50;;;1.90;100.00
19236;BME280;9752;54.270;12.470;2023-11-21T22:06:32;103084.03;;;2.24;100.00
19236;BME280;9752;54.270;12.470;2023-11-21T22:11:34;103100.31;;;2.25;100.00
19236;BME280;9752;54.270;12.470;2023-11-21T22:16:36;103107.91;;;2.18;100.00
19236;BME280;9752;54.270;12.470;2023-11-21T22:21:39;103104.53;;;2.24;100.00
19236;BME280;9752;54.270;12.470;2023-11-21T22:26:41;103106.41;;;2.00;100.00
19236;BME280;9752;54.270;12.470;2023-11-21T22:31:42;103092.50;;;1.98;100.00
19236;BME280;9752;54.270;12.470;2023-11-21T22:36:46;103092.41;;;2.03;100.00
19236;BME280;9752;54.270;12.470;2023-11-21T22:41:47;103091.44;;;2.03;100.00
19236;BME280;9752;54.270;12.470;2023-11-21T22:46:50;103093.63;;;2.00;100.00
19236;BME280;9752;54.270;12.470;2023-11-21T22:51:55;103096.31;;;1.94;100.00
19236;BME280;9752;54.270;12.470;2023-11-21T22:56:57;103105.22;;;1.90;100.00
19236;BME280;9752;54.270;12.470;2023-11-21T23:01:58;103118.31;;;1.86;100.00
19236;BME280;9752;54.270;12.470;2023-11-21T23:07:01;103118.63;;;1.82;100.00
19236;BME280;9752;54.270;12.470;2023-11-21T23:12:05;103115.97;;;1.75;100.00
19236;BME280;9752;54.270;12.470;2023-11-21T23:17:07;103113.41;;;1.62;100.00
19236;BME280;9752;54.270;12.470;2023-11-21T23:22:10;103125.06;;;1.47;100.00
19236;BME280;9752;54.270;12.470;2023-11-21T23:27:12;103128.44;;;1.28;100.00
19236;BME280;9752;54.270;12.470;2023-11-21T23:32:13;103126.56;;;1.01;100.00
19236;BME280;9752;54.270;12.470;2023-11-21T23:37:17;103129.63;;;0.67;100.00
19236;BME280;9752;54.270;12.470;2023-11-21T23:42:18;103134.50;;;0.34;100.00
19236;BME280;9752;54.270;12.470;2023-11-21T23:47:20;103140.03;;;0.19;100.00
19236;BME280;9752;54.270;12.470;2023-11-21T23:52:23;103135.72;;;-0.12;100.00
19236;BME280;9752;54.270;12.470;2023-11-21T23:57:25;103135.13;;;-0.22;100.00
